| time (UTC) | temp C | wind direction | speed KPH | gust KPH | rain 1hr cm | rain 24hr cm | rain mn cm | humidity % | barometer mb |
| 20260507085502 | 8 | 201 | 4.8 | 11.3 | 0.08 | 0.69 | 0.38 | 99 | 1009.2 |
| 20260507085101 | 8 | 294 | 1.6 | 8.0 | 0.10 | 0.69 | 0.38 | 99 | 1009.3 |
| 20260507084601 | 8 | 205 | 0.0 | 11.3 | 0.13 | 0.69 | 0.38 | 99 | 1009.2 |
| 20260507084059 | 8 | 193 | 3.2 | 11.3 | 0.13 | 0.66 | 0.36 | 99 | 1009.3 |
| 20260507083559 | 8 | 212 | 3.2 | 14.5 | 0.13 | 0.66 | 0.36 | 99 | 1009.4 |
| 20260507083058 | 8 | 190 | 3.2 | 14.5 | 0.13 | 0.66 | 0.36 | 99 | 1009.4 |
| 20260507082600 | 8 | 206 | 0.0 | 9.7 | 0.15 | 0.66 | 0.36 | 99 | 1009.0 |
| 20260507082056 | 8 | 228 | 1.6 | 12.9 | 0.13 | 0.64 | 0.33 | 98 | 1009.0 |
| 20260507081557 | 8 | 211 | 4.8 | 16.1 | 0.15 | 0.64 | 0.33 | 99 | 1009.1 |
| 20260507081056 | 8 | 188 | 4.8 | 16.1 | 0.15 | 0.64 | 0.33 | 99 | 1009.3 |
| 20260507080555 | 8 | 197 | 3.2 | 12.9 | 0.15 | 0.64 | 0.33 | 99 | 1009.4 |
| 20260507080054 | 8 | 199 | 3.2 | 12.9 | 0.15 | 0.61 | 0.30 | 99 | 1009.4 |
| 20260507075556 | 8 | 221 | 1.6 | 11.3 | 0.15 | 0.61 | 0.30 | 98 | 1009.4 |
| 20260507075053 | 8 | 218 | 1.6 | 11.3 | 0.15 | 0.58 | 0.28 | 98 | 1009.3 |
| 20260507074556 | 8 | 182 | 3.2 | 11.3 | 0.25 | 0.56 | 0.25 | 98 | 1009.7 |
| 20260507074050 | 8 | 196 | 3.2 | 11.3 | 0.23 | 0.53 | 0.23 | 98 | 1009.5 |
| 20260507073550 | 9 | 181 | 0.0 | 9.7 | 0.23 | 0.53 | 0.23 | 98 | 1009.5 |
| 20260507073049 | 9 | 203 | 3.2 | 16.1 | 0.23 | 0.53 | 0.23 | 98 | 1009.6 |
| 20260507072549 | 9 | 216 | 4.8 | 16.1 | 0.20 | 0.51 | 0.20 | 98 | 1009.7 |
| 20260507072047 | 9 | 82 | 0.0 | 9.7 | 0.20 | 0.51 | 0.20 | 98 | 1009.6 |
| 20260507071547 | 9 | 219 | 3.2 | 9.7 | 0.18 | 0.48 | 0.18 | 99 | 1009.3 |
| 20260507071047 | 9 | 219 | 1.6 | 9.7 | 0.18 | 0.48 | 0.18 | 99 | 1009.1 |
| 20260507070547 | 9 | 155 | 3.2 | 9.7 | 0.18 | 0.48 | 0.18 | 99 | 1009.9 |
| 20260507070050 | 9 | 182 | 0.0 | 11.3 | 0.15 | 0.46 | 0.15 | 98 | 1009.5 |
| 20260507065544 | 9 | 182 | 3.2 | 14.5 | 0.13 | 0.43 | 0.13 | 98 | 1009.0 |
| 20260507065043 | 9 | 196 | 4.8 | 14.5 | 0.13 | 0.43 | 0.13 | 98 | 1009.0 |
| 20260507064555 | 9 | 171 | 3.2 | 12.9 | 0.00 | 0.30 | 0.00 | 98 | 1009.0 |
| 20260507064041 | 9 | 213 | 1.6 | 9.7 | 0.00 | 0.30 | 0.00 | 98 | 1008.3 |
| 20260507063541 | 9 | 191 | 3.2 | 9.7 | 0.00 | 0.30 | 0.00 | 98 | 1008.4 |
| 20260507063039 | 9 | 203 | 3.2 | 9.7 | 0.00 | 0.30 | 0.00 | 98 | 1008.1 |
| 20260507062539 | 9 | 234 | 0.0 | 9.7 | 0.00 | 0.30 | 0.00 | 98 | 1008.0 |
| 20260507062038 | 10 | 234 | 1.6 | 9.7 | 0.00 | 0.30 | 0.00 | 98 | 1008.1 |
| 20260507061538 | 10 | 205 | 3.2 | 9.7 | 0.00 | 0.30 | 0.00 | 98 | 1008.3 |
| 20260507061037 | 10 | 235 | 1.6 | 11.3 | 0.00 | 0.30 | 0.00 | 98 | 1008.2 |
| 20260507060535 | 10 | 235 | 4.8 | 14.5 | 0.00 | 0.30 | 0.00 | 98 | 1008.3 |
| 20260507060039 | 10 | 216 | 4.8 | 14.5 | 0.00 | 0.30 | 0.00 | 98 | 1008.5 |
| 20260507055534 | 10 | 265 | 3.2 | 12.9 | 0.00 | 0.30 | 0.00 | 98 | 1008.6 |
| 20260507055032 | 10 | 198 | 3.2 | 12.9 | 0.00 | 0.30 | 0.00 | 99 | 1008.5 |
| 20260507054532 | 10 | 190 | 0.0 | 9.7 | 0.00 | 0.30 | 0.00 | 99 | 1008.5 |
| 20260507054034 | 10 | 190 | 1.6 | 9.7 | 0.00 | 0.30 | 0.00 | 99 | 1008.6 |
| 20260507053530 | 10 | 210 | 1.6 | 14.5 | 0.00 | 0.30 | 0.00 | 99 | 1009.0 |
| 20260507053030 | 10 | 213 | 3.2 | 14.5 | 0.00 | 0.30 | 0.00 | 99 | 1008.8 |
| 20260507052528 | 10 | 174 | 1.6 | 8.0 | 0.00 | 0.30 | 0.00 | 99 | 1008.6 |
| 20260507052027 | 10 | 180 | 1.6 | 11.3 | 0.00 | 0.30 | 0.00 | 99 | 1008.7 |
| 20260507051527 | 10 | 198 | 1.6 | 4.8 | 0.00 | 0.30 | 0.00 | 99 | 1008.8 |
| 20260507051026 | 11 | 185 | 0.0 | 11.3 | 0.00 | 0.30 | 0.00 | 99 | 1008.9 |
| 20260507050525 | 11 | 238 | 3.2 | 11.3 | 0.00 | 0.30 | 0.00 | 99 | 1009.0 |
| 20260507050034 | 11 | 224 | 1.6 | 6.4 | 0.00 | 0.30 | 0.00 | 99 | 1009.1 |
| 20260507045525 | 11 | 210 | 3.2 | 11.3 | 0.00 | 0.30 | 0.00 | 99 | 1009.1 |
| 20260507045025 | 11 | 231 | 0.0 | 11.3 | 0.00 | 0.30 | 0.00 | 99 | 1009.2 |
| 20260507044524 | 11 | 211 | 1.6 | 9.7 | 0.03 | 0.30 | 0.00 | 99 | 1009.1 |
| 20260507044023 | 11 | 190 | 4.8 | 11.3 | 0.03 | 0.30 | 0.00 | 99 | 1009.1 |
| 20260507043524 | 11 | 216 | 1.6 | 11.3 | 0.03 | 0.30 | 0.00 | 99 | 1009.1 |
| 20260507043022 | 11 | 194 | 0.0 | 6.4 | 0.03 | 0.30 | 0.00 | 99 | 1008.9 |
| 20260507042525 | 11 | 201 | 1.6 | 9.7 | 0.03 | 0.30 | 0.00 | 99 | 1009.1 |
| 20260507042020 | 11 | 201 | 1.6 | 9.7 | 0.03 | 0.30 | 0.00 | 99 | 1009.1 |
| 20260507041536 | 11 | 200 | 4.8 | 17.7 | 0.03 | 0.30 | 0.00 | 99 | 1009.0 |
| 20260507041019 | 11 | 189 | 3.2 | 17.7 | 0.03 | 0.30 | 0.00 | 99 | 1008.9 |
| 20260507040520 | 11 | 211 | 3.2 | 17.7 | 0.05 | 0.30 | 0.00 | 99 | 1009.0 |
| 20260507040016 | 11 | 203 | 4.8 | 17.7 | 0.05 | 0.30 | 0.00 | 99 | 1009.0 |
| 20260507035515 | 12 | 208 | 4.8 | 12.9 | 0.05 | 0.30 | 0.30 | 99 | 1009.1 |
| 20260507035017 | 12 | 224 | 3.2 | 12.9 | 0.05 | 0.30 | 0.30 | 99 | 1009.0 |
| 20260507034515 | 12 | 189 | 3.2 | 12.9 | 0.03 | 0.28 | 0.28 | 99 | 1009.1 |
| 20260507034013 | 12 | 222 | 1.6 | 8.0 | 0.03 | 0.28 | 0.28 | 99 | 1009.1 |
| 20260507033511 | 12 | 193 | 1.6 | 12.9 | 0.03 | 0.28 | 0.28 | 99 | 1009.2 |
| 20260507033012 | 12 | 205 | 3.2 | 17.7 | 0.03 | 0.28 | 0.28 | 99 | 1009.2 |
| 20260507032510 | 13 | 179 | 8.0 | 17.7 | 0.03 | 0.28 | 0.28 | 99 | 1009.2 |
| 20260507032010 | 13 | 197 | 6.4 | 16.1 | 0.03 | 0.28 | 0.28 | 100 | 1009.0 |
| 20260507031510 | 13 | 164 | 3.2 | 8.0 | 0.03 | 0.28 | 0.28 | 100 | 1009.1 |
| 20260507031010 | 13 | 171 | 1.6 | 12.9 | 0.03 | 0.28 | 0.28 | 100 | 1009.1 |
| 20260507030510 | 13 | 196 | 4.8 | 12.9 | 0.00 | 0.25 | 0.25 | 100 | 1008.9 |
| 20260507030010 | 13 | 72 | 3.2 | 8.0 | 0.00 | 0.25 | 0.25 | 99 | 1008.6 |
| 20260507025515 | 13 | 80 | 1.6 | 8.0 | 0.00 | 0.25 | 0.25 | 99 | 1008.9 |
| 20260507025009 | 13 | 80 | 3.2 | 6.4 | 0.00 | 0.25 | 0.25 | 99 | 1008.8 |
| 20260507024509 | 13 | 90 | 1.6 | 6.4 | 0.00 | 0.25 | 0.25 | 99 | 1008.6 |
| 20260507024011 | 13 | 95 | 1.6 | 9.7 | 0.00 | 0.25 | 0.25 | 99 | 1008.7 |
| 20260507023508 | 13 | 71 | 4.8 | 9.7 | 0.00 | 0.25 | 0.25 | 99 | 1008.7 |
| 20260507023008 | 13 | 88 | 3.2 | 12.9 | 0.00 | 0.25 | 0.25 | 99 | 1008.7 |
| 20260507022511 | 13 | 84 | 3.2 | 12.9 | 0.00 | 0.25 | 0.25 | 99 | 1008.6 |
| 20260507022011 | 13 | 88 | 4.8 | 14.5 | 0.00 | 0.25 | 0.25 | 99 | 1008.7 |
| 20260507021507 | 13 | 80 | 4.8 | 14.5 | 0.00 | 0.25 | 0.25 | 99 | 1008.8 |
| 20260507021007 | 13 | 112 | 6.4 | 16.1 | 0.00 | 0.25 | 0.25 | 99 | 1008.9 |
| 20260507020507 | 13 | 100 | 1.6 | 17.7 | 0.00 | 0.25 | 0.25 | 99 | 1008.7 |
| 20260507020107 | 13 | 105 | 8.0 | 19.3 | 0.00 | 0.25 | 0.25 | 99 | 1008.8 |
| 20260507015506 | 13 | 84 | 8.0 | 19.3 | 0.00 | 0.25 | 0.25 | 99 | 1008.9 |
| 20260507015006 | 13 | 88 | 3.2 | 19.3 | 0.00 | 0.25 | 0.25 | 99 | 1008.8 |
| 20260507014515 | 13 | 82 | 6.4 | 16.1 | 0.00 | 0.25 | 0.25 | 99 | 1008.7 |
| 20260507014006 | 13 | 80 | 4.8 | 19.3 | 0.00 | 0.25 | 0.25 | 99 | 1008.6 |
| 20260507013506 | 13 | 67 | 6.4 | 19.3 | 0.00 | 0.25 | 0.25 | 99 | 1008.8 |
| 20260507013020 | 13 | 95 | 4.8 | 19.3 | 0.00 | 0.25 | 0.25 | 99 | 1008.8 |
| 20260507012504 | 13 | 89 | 4.8 | 12.9 | 0.00 | 0.25 | 0.25 | 99 | 1008.6 |
| 20260507012008 | 13 | 105 | 4.8 | 17.7 | 0.00 | 0.25 | 0.25 | 99 | 1008.4 |
| 20260507011504 | 13 | 114 | 6.4 | 17.7 | 0.00 | 0.25 | 0.25 | 99 | 1008.3 |
| 20260507011004 | 13 | 49 | 9.7 | 17.7 | 0.00 | 0.25 | 0.25 | 99 | 1008.4 |
| 20260507010504 | 13 | 42 | 8.0 | 16.1 | 0.00 | 0.25 | 0.25 | 99 | 1008.4 |
| 20260507010004 | 13 | 72 | 4.8 | 17.7 | 0.00 | 0.25 | 0.25 | 99 | 1008.3 |
| 20260507005504 | 13 | 71 | 4.8 | 17.7 | 0.00 | 0.25 | 0.25 | 99 | 1008.3 |
| 20260507005004 | 13 | 51 | 8.0 | 17.7 | 0.00 | 0.25 | 0.25 | 99 | 1008.4 |
| 20260507004503 | 13 | 78 | 6.4 | 17.7 | 0.00 | 0.25 | 0.25 | 99 | 1008.4 |
| 20260507004004 | 13 | 76 | 6.4 | 17.7 | 0.00 | 0.25 | 0.25 | 99 | 1008.4 |
| 20260507003503 | 13 | 69 | 4.8 | 14.5 | 0.00 | 0.25 | 0.25 | 99 | 1008.5 |
| 20260507003001 | 13 | 90 | 6.4 | 20.9 | 0.00 | 0.25 | 0.25 | 99 | 1008.6 |
| 20260507002502 | 13 | 105 | 6.4 | 20.9 | 0.00 | 0.25 | 0.25 | 99 | 1008.6 |
| 20260507002004 | 13 | 33 | 6.4 | 24.1 | 0.00 | 0.25 | 0.25 | 99 | 1008.6 |
| 20260507001502 | 13 | 88 | 4.8 | 24.1 | 0.00 | 0.25 | 0.25 | 99 | 1008.5 |
| 20260507001002 | 13 | 65 | 4.8 | 17.7 | 0.00 | 0.25 | 0.25 | 99 | 1008.6 |
| 20260507000501 | 13 | 90 | 6.4 | 17.7 | 0.00 | 0.25 | 0.25 | 99 | 1008.4 |
| 20260506235501 | 13 | 67 | 4.8 | 17.7 | 0.00 | 0.25 | 0.25 | 99 | 1008.5 |
| 20260506235100 | 13 | 118 | 8.0 | 24.1 | 0.00 | 0.25 | 0.25 | 99 | 1008.4 |
| 20260506234559 | 13 | 76 | 9.7 | 24.1 | 0.00 | 0.25 | 0.25 | 99 | 1008.3 |
| 20260506234059 | 13 | 100 | 6.4 | 24.1 | 0.00 | 0.25 | 0.25 | 99 | 1008.3 |
| 20260506233602 | 13 | 82 | 9.7 | 20.9 | 0.00 | 0.25 | 0.25 | 99 | 1008.3 |
| 20260506233107 | 13 | 46 | 11.3 | 19.3 | 0.00 | 0.25 | 0.25 | 99 | 1008.3 |
| 20260506232558 | 13 | 95 | 6.4 | 16.1 | 0.00 | 0.25 | 0.25 | 99 | 1008.2 |
| 20260506232058 | 13 | 77 | 6.4 | 17.7 | 0.00 | 0.25 | 0.25 | 99 | 1008.3 |
| 20260506231558 | 13 | 65 | 11.3 | 17.7 | 0.00 | 0.25 | 0.25 | 99 | 1008.1 |
| 20260506231058 | 13 | 74 | 6.4 | 19.3 | 0.00 | 0.25 | 0.25 | 99 | 1008.1 |
| 20260506230557 | 13 | 63 | 8.0 | 19.3 | 0.00 | 0.25 | 0.25 | 99 | 1008.1 |
| 20260506230057 | 13 | 86 | 3.2 | 14.5 | 0.00 | 0.25 | 0.25 | 99 | 1007.9 |
| 20260506225559 | 13 | 82 | 4.8 | 14.5 | 0.00 | 0.25 | 0.25 | 99 | 1007.9 |
| 20260506225056 | 13 | 56 | 8.0 | 14.5 | 0.00 | 0.25 | 0.25 | 99 | 1008.0 |
| 20260506224556 | 13 | 95 | 3.2 | 12.9 | 0.00 | 0.25 | 0.25 | 99 | 1007.8 |
| 20260506224055 | 13 | 78 | 3.2 | 19.3 | 0.00 | 0.25 | 0.25 | 99 | 1007.9 |
| 20260506223555 | 13 | 95 | 4.8 | 19.3 | 0.00 | 0.25 | 0.25 | 98 | 1007.8 |
| 20260506223111 | 13 | 76 | 6.4 | 17.7 | 0.00 | 0.25 | 0.25 | 98 | 1007.8 |
| 20260506222555 | 13 | 95 | 9.7 | 17.7 | 0.00 | 0.25 | 0.25 | 98 | 1007.8 |
| 20260506222059 | 13 | 100 | 3.2 | 19.3 | 0.03 | 0.25 | 0.25 | 98 | 1007.7 |
| 20260506221559 | 13 | 58 | 6.4 | 19.3 | 0.03 | 0.25 | 0.25 | 98 | 1007.9 |
| 20260506221056 | 13 | 85 | 6.4 | 19.3 | 0.03 | 0.25 | 0.25 | 98 | 1007.8 |
| 20260506220553 | 13 | 46 | 6.4 | 16.1 | 0.03 | 0.25 | 0.25 | 98 | 1007.8 |
| 20260506220055 | 13 | 36 | 9.7 | 16.1 | 0.03 | 0.25 | 0.25 | 98 | 1007.7 |
| 20260506215553 | 13 | 120 | 8.0 | 27.4 | 0.05 | 0.25 | 0.25 | 98 | 1007.6 |
| 20260506215053 | 13 | 83 | 6.4 | 27.4 | 0.05 | 0.25 | 0.25 | 98 | 1007.7 |
| 20260506214600 | 13 | 87 | 4.8 | 19.3 | 0.08 | 0.25 | 0.25 | 98 | 1007.6 |
| 20260506214054 | 13 | 50 | 6.4 | 19.3 | 0.10 | 0.25 | 0.25 | 98 | 1007.7 |
| 20260506213551 | 13 | 56 | 6.4 | 16.1 | 0.10 | 0.25 | 0.25 | 98 | 1007.7 |
| 20260506213051 | 13 | 69 | 6.4 | 19.3 | 0.10 | 0.25 | 0.25 | 98 | 1007.7 |
| 20260506212550 | 13 | 52 | 6.4 | 20.9 | 0.10 | 0.25 | 0.25 | 98 | 1007.7 |
| 20260506212054 | 13 | 36 | 9.7 | 24.1 | 0.08 | 0.23 | 0.23 | 98 | 1007.8 |
| 20260506211551 | 13 | 21 | 9.7 | 24.1 | 0.08 | 0.23 | 0.23 | 98 | 1007.7 |
| 20260506211050 | 13 | 73 | 6.4 | 19.3 | 0.08 | 0.23 | 0.23 | 98 | 1007.9 |
| 20260506210550 | 13 | 61 | 11.3 | 17.7 | 0.08 | 0.23 | 0.23 | 98 | 1007.8 |
| 20260506210050 | 13 | 95 | 4.8 | 16.1 | 0.08 | 0.23 | 0.23 | 98 | 1007.9 |
| 20260506205550 | 13 | 49 | 4.8 | 25.7 | 0.05 | 0.20 | 0.20 | 97 | 1008.0 |
| 20260506205049 | 13 | 105 | 6.4 | 25.7 | 0.03 | 0.18 | 0.18 | 97 | 1008.0 |
| 20260506204548 | 13 | 76 | 6.4 | 16.1 | 0.03 | 0.18 | 0.18 | 97 | 1008.0 |
| 20260506204048 | 13 | 74 | 8.0 | 22.5 | 0.00 | 0.15 | 0.15 | 97 | 1008.0 |
| 20260506203548 | 13 | 81 | 6.4 | 22.5 | 0.00 | 0.15 | 0.15 | 97 | 1008.2 |
| 20260506203050 | 13 | 65 | 8.0 | 22.5 | 0.00 | 0.15 | 0.15 | 97 | 1008.1 |
| 20260506202551 | 13 | 59 | 9.7 | 20.9 | 0.00 | 0.15 | 0.15 | 97 | 1008.1 |
| 20260506202048 | 13 | 88 | 4.8 | 20.9 | 0.00 | 0.15 | 0.15 | 97 | 1008.1 |
| 20260506201547 | 13 | 49 | 4.8 | 20.9 | 0.00 | 0.15 | 0.15 | 97 | 1008.0 |
| 20260506201050 | 13 | 67 | 8.0 | 20.9 | 0.00 | 0.15 | 0.15 | 97 | 1008.0 |
| 20260506200546 | 13 | 115 | 9.7 | 20.9 | 0.00 | 0.15 | 0.15 | 97 | 1008.1 |
| 20260506200118 | 13 | 82 | 6.4 | 19.3 | 0.00 | 0.15 | 0.15 | 97 | 1008.2 |
| 20260506195546 | 13 | 76 | 8.0 | 19.3 | 0.03 | 0.15 | 0.15 | 97 | 1008.1 |
| 20260506195048 | 13 | 113 | 6.4 | 20.9 | 0.03 | 0.15 | 0.15 | 97 | 1008.3 |
| 20260506194544 | 13 | 82 | 6.4 | 20.9 | 0.05 | 0.15 | 0.15 | 97 | 1008.3 |
| 20260506194043 | 13 | 55 | 3.2 | 30.6 | 0.05 | 0.15 | 0.15 | 97 | 1008.3 |
| 20260506193546 | 13 | 61 | 6.4 | 30.6 | 0.08 | 0.15 | 0.15 | 97 | 1008.5 |
| 20260506193045 | 13 | 100 | 11.3 | 24.1 | 0.08 | 0.15 | 0.15 | 97 | 1008.5 |
| 20260506192543 | 13 | 95 | 12.9 | 24.1 | 0.10 | 0.15 | 0.15 | 97 | 1008.6 |
| 20260506192042 | 13 | 95 | 9.7 | 25.7 | 0.10 | 0.15 | 0.15 | 97 | 1008.6 |
| 20260506191546 | 13 | 105 | 9.7 | 30.6 | 0.10 | 0.15 | 0.15 | 97 | 1008.7 |
| 20260506191041 | 13 | 126 | 14.5 | 30.6 | 0.13 | 0.15 | 0.15 | 96 | 1008.7 |
| 20260506190541 | 13 | 100 | 4.8 | 22.5 | 0.13 | 0.15 | 0.15 | 97 | 1008.6 |
| 20260506190042 | 13 | 88 | 8.0 | 25.7 | 0.13 | 0.15 | 0.15 | 96 | 1008.5 |
| 20260506185546 | 13 | 57 | 14.5 | 25.7 | 0.10 | 0.13 | 0.13 | 96 | 1008.6 |
| 20260506185044 | 13 | 70 | 8.0 | 24.1 | 0.13 | 0.13 | 0.13 | 96 | 1008.9 |
| 20260506184539 | 13 | 86 | 11.3 | 22.5 | 0.10 | 0.10 | 0.10 | 96 | 1009.0 |
| 20260506184139 | 13 | 64 | 12.9 | 29.0 | 0.10 | 0.10 | 0.10 | 95 | 1008.8 |
| 20260506183538 | 13 | 55 | 12.9 | 29.0 | 0.08 | 0.08 | 0.08 | 95 | 1008.6 |
| 20260506183038 | 13 | 76 | 3.2 | 14.5 | 0.08 | 0.08 | 0.08 | 95 | 1008.7 |
| 20260506182537 | 13 | 67 | 3.2 | 16.1 | 0.05 | 0.05 | 0.05 | 94 | 1008.8 |
| 20260506182037 | 14 | 59 | 6.4 | 17.7 | 0.05 | 0.05 | 0.05 | 94 | 1009.0 |
| 20260506181538 | 14 | 327 | 6.4 | 22.5 | 0.05 | 0.05 | 0.05 | 93 | 1009.0 |
| 20260506181035 | 14 | 45 | 6.4 | 22.5 | 0.03 | 0.03 | 0.03 | 93 | 1009.0 |
| 20260506180535 | 14 | 67 | 8.0 | 27.4 | 0.03 | 0.03 | 0.03 | 92 | 1009.2 |
| 20260506180045 | 14 | 82 | 6.4 | 27.4 | 0.03 | 0.03 | 0.03 | 92 | 1009.3 |
| 20260506175535 | 15 | 63 | 6.4 | 25.7 | 0.03 | 0.03 | 0.03 | 91 | 1009.7 |
| 20260506175033 | 15 | 100 | 11.3 | 25.7 | 0.00 | 0.00 | 0.00 | 89 | 1009.7 |
| 20260506174532 | 15 | 82 | 11.3 | 20.9 | 0.00 | 0.00 | 0.00 | 88 | 1009.7 |
| 20260506174032 | 15 | 100 | 6.4 | 20.9 | 0.00 | 0.00 | 0.00 | 87 | 1009.7 |
| 20260506173533 | 15 | 123 | 11.3 | 20.9 | 0.00 | 0.00 | 0.00 | 87 | 1009.8 |
| 20260506173032 | 16 | 84 | 6.4 | 19.3 | 0.00 | 0.00 | 0.00 | 86 | 1009.8 |
| 20260506172530 | 16 | 95 | 6.4 | 24.1 | 0.00 | 0.00 | 0.00 | 85 | 1009.8 |
| 20260506172034 | 16 | 91 | 11.3 | 30.6 | 0.00 | 0.00 | 0.00 | 83 | 1010.0 |
| 20260506171545 | 16 | 105 | 14.5 | 30.6 | 0.00 | 0.00 | 0.00 | 82 | 1010.0 |
| 20260506171030 | 16 | 46 | 6.4 | 17.7 | 0.00 | 0.00 | 0.00 | 83 | 1010.0 |
| 20260506170530 | 16 | 82 | 9.7 | 29.0 | 0.00 | 0.00 | 0.00 | 82 | 1009.9 |
| 20260506170029 | 16 | 63 | 11.3 | 30.6 | 0.00 | 0.00 | 0.00 | 82 | 1010.0 |
| 20260506165529 | 17 | 100 | 12.9 | 25.7 | 0.00 | 0.00 | 0.00 | 82 | 1009.9 |
| 20260506165032 | 17 | 38 | 16.1 | 32.2 | 0.00 | 0.00 | 0.00 | 81 | 1010.0 |
| 20260506164528 | 17 | 74 | 19.3 | 33.8 | 0.00 | 0.00 | 0.00 | 81 | 1010.0 |
| 20260506164027 | 17 | 51 | 16.1 | 33.8 | 0.00 | 0.00 | 0.00 | 80 | 1010.1 |
| 20260506163527 | 17 | 39 | 6.4 | 29.0 | 0.00 | 0.00 | 0.00 | 81 | 1010.2 |
| 20260506163031 | 17 | 86 | 14.5 | 29.0 | 0.00 | 0.00 | 0.00 | 81 | 1010.1 |
| 20260506162526 | 17 | 13 | 11.3 | 27.4 | 0.00 | 0.00 | 0.00 | 80 | 1010.1 |
| 20260506162027 | 17 | 95 | 8.0 | 27.4 | 0.00 | 0.00 | 0.00 | 81 | 1010.1 |
| 20260506161536 | 17 | 113 | 9.7 | 30.6 | 0.00 | 0.00 | 0.00 | 80 | 1010.1 |
| 20260506161026 | 17 | 57 | 11.3 | 30.6 | 0.00 | 0.00 | 0.00 | 79 | 1010.4 |
| 20260506160529 | 17 | 69 | 9.7 | 22.5 | 0.00 | 0.00 | 0.00 | 80 | 1010.4 |
| 20260506160026 | 17 | 95 | 9.7 | 22.5 | 0.00 | 0.00 | 0.00 | 79 | 1010.4 |
| 20260506155526 | 17 | 61 | 9.7 | 27.4 | 0.00 | 0.00 | 0.00 | 78 | 1010.6 |
| 20260506155026 | 18 | 26 | 9.7 | 27.4 | 0.00 | 0.00 | 0.00 | 78 | 1010.5 |
| 20260506154525 | 18 | 50 | 8.0 | 24.1 | 0.00 | 0.00 | 0.00 | 78 | 1010.4 |
| 20260506154025 | 18 | 55 | 8.0 | 24.1 | 0.00 | 0.00 | 0.00 | 77 | 1010.4 |
| 20260506153526 | 18 | 109 | 11.3 | 25.7 | 0.00 | 0.00 | 0.00 | 76 | 1010.3 |
| 20260506153024 | 18 | 84 | 9.7 | 30.6 | 0.00 | 0.00 | 0.00 | 77 | 1010.3 |
| 20260506152525 | 18 | 76 | 17.7 | 37.0 | 0.00 | 0.00 | 0.00 | 76 | 1010.3 |
| 20260506152024 | 18 | 74 | 17.7 | 37.0 | 0.00 | 0.00 | 0.00 | 75 | 1010.4 |
| 20260506151526 | 18 | 146 | 11.3 | 30.6 | 0.00 | 0.00 | 0.00 | 77 | 1010.3 |
| 20260506151023 | 18 | 95 | 19.3 | 30.6 | 0.00 | 0.00 | 0.00 | 76 | 1010.2 |
| 20260506150524 | 18 | 67 | 11.3 | 27.4 | 0.00 | 0.00 | 0.00 | 76 | 1010.5 |
| 20260506150026 | 18 | 63 | 12.9 | 22.5 | 0.00 | 0.00 | 0.00 | 75 | 1010.4 |
| 20260506145525 | 19 | 75 | 9.7 | 24.1 | 0.00 | 0.00 | 0.00 | 75 | 1010.6 |
| 20260506145022 | 19 | 69 | 11.3 | 33.8 | 0.00 | 0.00 | 0.00 | 76 | 1010.5 |
| 20260506144521 | 19 | 51 | 19.3 | 33.8 | 0.00 | 0.00 | 0.00 | 75 | 1010.4 |
| 20260506144020 | 18 | 13 | 11.3 | 30.6 | 0.00 | 0.00 | 0.00 | 76 | 1010.4 |
| 20260506143520 | 18 | 73 | 14.5 | 32.2 | 0.00 | 0.00 | 0.00 | 75 | 1010.5 |
| 20260506143019 | 18 | 49 | 9.7 | 33.8 | 0.00 | 0.00 | 0.00 | 76 | 1010.5 |
| 20260506142517 | 18 | 48 | 12.9 | 40.2 | 0.00 | 0.00 | 0.00 | 76 | 1010.7 |
| 20260506142017 | 18 | 88 | 14.5 | 33.8 | 0.00 | 0.00 | 0.00 | 79 | 1010.9 |
| 20260506141516 | 18 | 85 | 12.9 | 29.0 | 0.00 | 0.00 | 0.00 | 79 | 1010.9 |
| 20260506141015 | 18 | 112 | 11.3 | 25.7 | 0.00 | 0.00 | 0.00 | 78 | 1010.8 |
| 20260506140514 | 18 | 51 | 12.9 | 25.7 | 0.00 | 0.00 | 0.00 | 78 | 1010.8 |
| 20260506140013 | 18 | 86 | 16.1 | 25.7 | 0.00 | 0.00 | 0.00 | 79 | 1010.6 |
| 20260506135513 | 18 | 71 | 12.9 | 25.7 | 0.00 | 0.00 | 0.00 | 78 | 1010.7 |
| 20260506135020 | 18 | 70 | 9.7 | 25.7 | 0.00 | 0.00 | 0.00 | 79 | 1010.7 |
| 20260506134521 | 17 | 78 | 12.9 | 25.7 | 0.00 | 0.00 | 0.00 | 79 | 1010.5 |
| 20260506134010 | 17 | 95 | 11.3 | 22.5 | 0.00 | 0.00 | 0.00 | 80 | 1010.6 |
| 20260506133511 | 17 | 11 | 11.3 | 27.4 | 0.00 | 0.00 | 0.00 | 79 | 1010.5 |
| 20260506133008 | 17 | 77 | 9.7 | 30.6 | 0.00 | 0.00 | 0.00 | 81 | 1010.7 |
| 20260506132507 | 17 | 71 | 4.8 | 30.6 | 0.00 | 0.00 | 0.00 | 82 | 1010.6 |
| 20260506132007 | 17 | 80 | 11.3 | 29.0 | 0.00 | 0.00 | 0.00 | 81 | 1010.5 |
| 20260506131505 | 17 | 34 | 11.3 | 29.0 | 0.00 | 0.00 | 0.00 | 82 | 1010.5 |
| 20260506131005 | 17 | 59 | 9.7 | 29.0 | 0.00 | 0.00 | 0.00 | 82 | 1010.8 |
| 20260506130504 | 17 | 45 | 12.9 | 29.0 | 0.00 | 0.00 | 0.00 | 82 | 1010.7 |
| 20260506130005 | 17 | 63 | 11.3 | 30.6 | 0.00 | 0.00 | 0.00 | 83 | 1010.7 |
| 20260506125503 | 17 | 82 | 11.3 | 24.1 | 0.00 | 0.00 | 0.00 | 82 | 1011.0 |
| 20260506125101 | 17 | 105 | 12.9 | 25.7 | 0.00 | 0.00 | 0.00 | 83 | 1011.1 |
| 20260506124609 | 17 | 100 | 12.9 | 27.4 | 0.00 | 0.00 | 0.00 | 84 | 1011.1 |
| 20260506124058 | 16 | 95 | 11.3 | 27.4 | 0.00 | 0.00 | 0.00 | 86 | 1011.2 |
| 20260506123557 | 16 | 36 | 11.3 | 25.7 | 0.00 | 0.00 | 0.00 | 85 | 1011.1 |
| 20260506123056 | 16 | 110 | 17.7 | 25.7 | 0.00 | 0.00 | 0.00 | 87 | 1011.0 |
| 20260506122553 | 15 | 51 | 11.3 | 24.1 | 0.00 | 0.00 | 0.00 | 89 | 1011.1 |
| 20260506122053 | 15 | 78 | 11.3 | 19.3 | 0.00 | 0.00 | 0.00 | 88 | 1011.1 |
| 20260506121601 | 15 | 86 | 8.0 | 19.3 | 0.00 | 0.00 | 0.00 | 89 | 1011.1 |
| 20260506121051 | 15 | 75 | 8.0 | 19.3 | 0.00 | 0.00 | 0.00 | 89 | 1011.1 |
| 20260506120551 | 15 | 78 | 9.7 | 19.3 | 0.00 | 0.00 | 0.00 | 89 | 1011.2 |
| 20260506120051 | 15 | 43 | 4.8 | 19.3 | 0.00 | 0.00 | 0.00 | 89 | 1011.1 |
| 20260506115551 | 15 | 62 | 4.8 | 19.3 | 0.00 | 0.00 | 0.00 | 90 | 1011.1 |
| 20260506115049 | 14 | 61 | 6.4 | 24.1 | 0.00 | 0.00 | 0.00 | 90 | 1010.9 |
| 20260506114553 | 14 | 67 | 11.3 | 24.1 | 0.00 | 0.00 | 0.00 | 90 | 1011.0 |
| 20260506114048 | 14 | 51 | 8.0 | 25.7 | 0.00 | 0.00 | 0.00 | 91 | 1010.9 |
| 20260506113548 | 14 | 75 | 8.0 | 25.7 | 0.00 | 0.00 | 0.00 | 91 | 1010.9 |
| 20260506113047 | 14 | 91 | 8.0 | 19.3 | 0.00 | 0.00 | 0.00 | 91 | 1011.2 |
| 20260506112547 | 14 | 70 | 6.4 | 19.3 | 0.00 | 0.00 | 0.00 | 92 | 1011.2 |
| 20260506112045 | 13 | 60 | 12.9 | 19.3 | 0.00 | 0.00 | 0.00 | 91 | 1011.3 |
| 20260506111554 | 13 | 95 | 8.0 | 24.1 | 0.00 | 0.00 | 0.00 | 92 | 1011.2 |
| 20260506111044 | 13 | 49 | 11.3 | 24.1 | 0.00 | 0.00 | 0.00 | 92 | 1011.2 |
| 20260506110546 | 13 | 60 | 9.7 | 19.3 | 0.00 | 0.00 | 0.00 | 93 | 1011.0 |
| 20260506110043 | 13 | 95 | 9.7 | 19.3 | 0.00 | 0.00 | 0.00 | 93 | 1011.2 |
| 20260506105544 | 13 | 73 | 6.4 | 22.5 | 0.00 | 0.00 | 0.00 | 93 | 1011.2 |
| 20260506105042 | 13 | 95 | 4.8 | 22.5 | 0.00 | 0.00 | 0.00 | 93 | 1011.2 |
| 20260506104542 | 13 | 84 | 6.4 | 19.3 | 0.00 | 0.00 | 0.00 | 93 | 1011.2 |
| 20260506104040 | 13 | 52 | 8.0 | 19.3 | 0.00 | 0.00 | 0.00 | 94 | 1011.2 |
| 20260506103540 | 13 | 87 | 8.0 | 17.7 | 0.00 | 0.00 | 0.00 | 94 | 1011.0 |
| 20260506103039 | 13 | 57 | 6.4 | 20.9 | 0.00 | 0.00 | 0.00 | 94 | 1011.1 |
| 20260506102538 | 13 | 86 | 11.3 | 22.5 | 0.00 | 0.00 | 0.00 | 94 | 1011.1 |
| 20260506102039 | 13 | 70 | 9.7 | 22.5 | 0.00 | 0.00 | 0.00 | 93 | 1011.0 |
| 20260506101537 | 13 | 71 | 9.7 | 22.5 | 0.00 | 0.00 | 0.00 | 93 | 1011.1 |
| 20260506101036 | 13 | 51 | 11.3 | 19.3 | 0.00 | 0.00 | 0.00 | 93 | 1011.0 |
| 20260506100536 | 13 | 69 | 4.8 | 22.5 | 0.00 | 0.00 | 0.00 | 93 | 1011.0 |
| 20260506100036 | 13 | 95 | 6.4 | 22.5 | 0.00 | 0.00 | 0.00 | 93 | 1011.0 |
| 20260506095536 | 13 | 82 | 4.8 | 16.1 | 0.00 | 0.00 | 0.00 | 93 | 1011.0 |
| 20260506095037 | 13 | 83 | 4.8 | 19.3 | 0.00 | 0.00 | 0.00 | 93 | 1011.0 |
| 20260506094533 | 13 | 82 | 4.8 | 20.9 | 0.00 | 0.00 | 0.00 | 92 | 1010.9 |
| 20260506094034 | 13 | 40 | 11.3 | 19.3 | 0.00 | 0.00 | 0.00 | 92 | 1011.0 |
| 20260506093531 | 13 | 64 | 9.7 | 20.9 | 0.00 | 0.00 | 0.00 | 92 | 1011.0 |
| 20260506093031 | 13 | 56 | 8.0 | 24.1 | 0.00 | 0.00 | 0.00 | 92 | 1011.0 |
| 20260506092531 | 13 | 74 | 6.4 | 24.1 | 0.00 | 0.00 | 0.00 | 92 | 1011.0 |
| 20260506092030 | 13 | 42 | 9.7 | 24.1 | 0.00 | 0.00 | 0.00 | 92 | 1011.0 |
| 20260506091530 | 13 | 61 | 9.7 | 24.1 | 0.00 | 0.00 | 0.00 | 92 | 1011.0 |
| 20260506091030 | 13 | 95 | 12.9 | 24.1 | 0.00 | 0.00 | 0.00 | 92 | 1011.1 |
| 20260506090528 | 13 | 55 | 11.3 | 24.1 | 0.00 | 0.00 | 0.00 | 91 | 1011.1 |
| 20260506090029 | 13 | 69 | 11.3 | 24.1 | 0.00 | 0.00 | 0.00 | 91 | 1011.1 |